createdAt,value
2023-05-14T00:01:12.772Z,13.53
2023-05-14T00:04:15.082Z,13.54
2023-05-14T00:07:17.342Z,13.56
2023-05-14T00:10:22.093Z,13.55
2023-05-14T00:13:25.600Z,13.56
2023-05-14T00:16:27.924Z,13.55
2023-05-14T00:19:30.209Z,13.52
2023-05-14T00:22:32.837Z,13.50
2023-05-14T00:25:35.187Z,13.41
2023-05-14T00:28:37.384Z,13.30
2023-05-14T00:31:39.715Z,13.35
2023-05-14T00:34:41.996Z,13.35
2023-05-14T00:37:44.227Z,13.29
2023-05-14T00:40:51.213Z,13.34
2023-05-14T00:43:53.624Z,13.31
2023-05-14T00:46:55.954Z,13.35
2023-05-14T00:49:58.192Z,13.37
2023-05-14T00:53:00.712Z,13.36
2023-05-14T00:56:03.274Z,13.36
2023-05-14T00:59:05.568Z,13.34
2023-05-14T01:02:07.850Z,13.34
2023-05-14T01:05:10.172Z,13.21
2023-05-14T01:08:15.200Z,13.18
2023-05-14T01:11:29.354Z,13.12
2023-05-14T01:14:42.831Z,13.15
2023-05-14T01:17:50.661Z,13.13
2023-05-14T01:20:54.210Z,13.17
2023-05-14T01:23:56.472Z,13.19
2023-05-14T01:27:07.070Z,13.16
2023-05-14T01:30:23.515Z,13.18
2023-05-14T01:33:27.910Z,13.20
2023-05-14T01:36:31.007Z,13.25
2023-05-14T01:39:37.851Z,13.22
2023-05-14T01:42:40.803Z,13.22
2023-05-14T01:45:43.540Z,13.21
2023-05-14T01:48:45.811Z,13.13
2023-05-14T01:51:48.093Z,13.20
2023-05-14T01:54:50.336Z,13.24
2023-05-14T01:57:53.199Z,13.24
2023-05-14T02:00:55.601Z,13.26
2023-05-14T02:03:57.841Z,13.23
2023-05-14T02:07:00.131Z,13.27
2023-05-14T02:10:02.339Z,13.26
2023-05-14T02:13:04.641Z,13.29
2023-05-14T02:16:07.175Z,13.27
2023-05-14T02:19:09.664Z,13.29
2023-05-14T02:22:12.443Z,13.30
2023-05-14T02:25:14.785Z,13.28
2023-05-14T02:28:17.051Z,13.27
2023-05-14T02:31:19.563Z,13.20
2023-05-14T02:34:21.887Z,13.23
2023-05-14T02:37:24.168Z,13.24
2023-05-14T02:40:27.320Z,13.24
2023-05-14T02:43:29.760Z,13.24
2023-05-14T02:46:32.474Z,13.25
2023-05-14T02:49:34.719Z,13.23
2023-05-14T02:52:36.948Z,13.20
2023-05-14T02:55:39.274Z,13.22
2023-05-14T02:58:41.567Z,13.25
2023-05-14T03:01:43.879Z,13.27
2023-05-14T03:04:46.775Z,13.27
2023-05-14T03:07:51.280Z,13.20
2023-05-14T03:10:53.556Z,13.18
2023-05-14T03:13:55.836Z,13.18
2023-05-14T03:16:58.150Z,13.20
2023-05-14T03:20:00.722Z,13.20
2023-05-14T03:23:02.955Z,13.22
2023-05-14T03:26:05.300Z,13.23
2023-05-14T03:29:07.514Z,13.24
2023-05-14T03:32:10.134Z,13.20
2023-05-14T03:35:12.381Z,13.17
2023-05-14T03:38:14.737Z,13.19
2023-05-14T03:41:18.524Z,13.18
2023-05-14T03:44:20.775Z,13.17
2023-05-14T03:47:23.248Z,13.16
2023-05-14T03:50:26.582Z,13.11
2023-05-14T03:53:29.171Z,13.11
2023-05-14T03:56:31.390Z,13.05
2023-05-14T03:59:33.748Z,13.10
2023-05-14T04:02:36.261Z,13.15
2023-05-14T04:05:38.775Z,13.17
2023-05-14T04:08:41.262Z,13.16
2023-05-14T04:11:43.858Z,13.18
2023-05-14T04:14:46.190Z,13.12
2023-05-14T04:17:48.457Z,13.10
2023-05-14T04:20:50.731Z,13.08
2023-05-14T04:23:52.993Z,13.11
2023-05-14T04:26:55.278Z,13.10
2023-05-14T04:29:58.222Z,13.03
2023-05-14T04:33:00.410Z,13.03
2023-05-14T04:36:02.559Z,13.04
2023-05-14T04:39:06.032Z,13.01
2023-05-14T04:42:08.380Z,13.03
2023-05-14T04:45:11.371Z,13.06
2023-05-14T04:48:13.465Z,13.07
2023-05-14T04:51:15.649Z,13.07
2023-05-14T04:54:17.938Z,13.06
2023-05-14T04:57:20.182Z,13.11
2023-05-14T05:00:23.229Z,13.10
2023-05-14T05:03:25.840Z,13.07
2023-05-14T05:06:28.251Z,13.08
2023-05-14T05:09:30.610Z,13.06
2023-05-14T05:12:32.974Z,13.03
2023-05-14T05:15:35.467Z,13.00
2023-05-14T05:18:37.903Z,13.02
2023-05-14T05:21:43.165Z,13.02
2023-05-14T05:24:45.398Z,13.04
2023-05-14T05:27:47.645Z,13.03
2023-05-14T05:30:49.899Z,13.02
2023-05-14T05:33:52.104Z,13.01
2023-05-14T05:36:54.310Z,13.07
2023-05-14T05:39:56.501Z,13.02
2023-05-14T05:42:58.761Z,13.04
2023-05-14T05:46:01.675Z,13.01
2023-05-14T05:49:03.862Z,13.01
2023-05-14T05:52:06.068Z,12.99
2023-05-14T05:55:08.796Z,13.03
2023-05-14T05:58:10.993Z,13.01
2023-05-14T06:01:13.297Z,13.07
2023-05-14T06:04:15.569Z,13.10
2023-05-14T06:07:17.741Z,13.13
2023-05-14T06:10:20.158Z,13.17
2023-05-14T06:13:22.420Z,13.22
2023-05-14T06:16:24.750Z,13.20
2023-05-14T06:19:26.942Z,13.18
2023-05-14T06:22:29.111Z,13.18
2023-05-14T06:25:31.491Z,13.18
2023-05-14T06:28:33.712Z,13.18
2023-05-14T06:31:36.033Z,13.15
2023-05-14T06:34:38.359Z,13.11
2023-05-14T06:37:40.583Z,13.16
2023-05-14T06:40:42.879Z,13.20
2023-05-14T06:43:45.126Z,13.18
2023-05-14T06:46:47.356Z,13.24
2023-05-14T06:49:49.822Z,13.20
2023-05-14T06:52:52.003Z,13.20
2023-05-14T06:55:54.310Z,13.22
2023-05-14T06:58:56.527Z,13.24
2023-05-14T07:01:59.712Z,13.32
2023-05-14T07:05:02.554Z,13.34
2023-05-14T07:08:04.923Z,13.39
2023-05-14T07:11:07.159Z,13.42
2023-05-14T07:14:09.426Z,13.46
2023-05-14T07:17:12.029Z,13.52
2023-05-14T07:20:14.359Z,13.59
2023-05-14T07:23:18.584Z,13.67
2023-05-14T07:26:24.500Z,13.71
2023-05-14T07:29:26.829Z,13.76
2023-05-14T07:32:29.102Z,13.81
2023-05-14T07:35:31.591Z,13.84
2023-05-14T07:38:33.955Z,13.88
2023-05-14T07:41:36.294Z,13.92
2023-05-14T07:44:38.574Z,13.97
2023-05-14T07:47:41.203Z,14.03
2023-05-14T07:50:43.452Z,14.12
2023-05-14T07:53:45.694Z,14.15
2023-05-14T07:56:47.945Z,14.17
2023-05-14T07:59:50.494Z,14.19
2023-05-14T08:02:52.878Z,14.19
2023-05-14T08:05:56.441Z,14.18
2023-05-14T08:08:58.773Z,14.21
2023-05-14T08:12:01.371Z,14.25
2023-05-14T08:15:03.978Z,14.23
2023-05-14T08:18:06.271Z,14.26
2023-05-14T08:21:08.558Z,14.28
2023-05-14T08:24:11.385Z,14.27
2023-05-14T08:27:13.676Z,14.26
2023-05-14T08:30:15.979Z,14.25
2023-05-14T08:33:18.356Z,14.28
2023-05-14T08:36:20.563Z,14.33
2023-05-14T08:39:22.746Z,14.27
2023-05-14T08:42:25.840Z,14.29
2023-05-14T08:45:34.555Z,14.29
2023-05-14T08:48:37.789Z,14.25
2023-05-14T08:51:40.770Z,14.28
2023-05-14T08:54:42.874Z,14.31
2023-05-14T08:57:45.120Z,14.27
2023-05-14T09:00:47.808Z,14.29
2023-05-14T09:03:50.580Z,14.32
2023-05-14T09:06:53.979Z,14.33
2023-05-14T09:09:56.235Z,14.34
2023-05-14T09:12:58.475Z,14.33
2023-05-14T09:16:00.939Z,14.34
2023-05-14T09:19:07.043Z,14.32
2023-05-14T09:22:13.650Z,14.37
2023-05-14T09:25:16.398Z,14.38
2023-05-14T09:28:19.182Z,14.34
2023-05-14T09:31:21.563Z,14.39
2023-05-14T09:34:25.394Z,14.42
2023-05-14T09:37:28.692Z,14.38
2023-05-14T09:40:31.002Z,14.38
2023-05-14T09:43:33.379Z,14.40
2023-05-14T09:46:35.626Z,14.40
2023-05-14T09:49:37.879Z,14.40
2023-05-14T09:52:40.224Z,14.40
2023-05-14T09:55:42.623Z,14.38
2023-05-14T09:58:44.890Z,14.43
2023-05-14T10:01:47.535Z,14.45
2023-05-14T10:04:51.958Z,14.44
2023-05-14T10:07:57.421Z,14.47
2023-05-14T10:11:03.736Z,14.47
2023-05-14T10:14:53.714Z,14.47
2023-05-14T10:17:59.391Z,14.40
2023-05-14T10:21:06.263Z,14.40
2023-05-14T10:24:09.786Z,14.39
2023-05-14T10:27:12.479Z,14.27
2023-05-14T10:30:14.804Z,14.39
2023-05-14T10:33:18.669Z,14.40
2023-05-14T10:36:21.117Z,14.40
2023-05-14T10:39:26.482Z,14.32
2023-05-14T10:42:40.776Z,14.37
2023-05-14T10:45:44.824Z,14.42
2023-05-14T10:48:47.165Z,14.40
2023-05-14T10:51:49.557Z,14.41
2023-05-14T10:54:56.659Z,14.44
2023-05-14T10:57:59.132Z,14.46
2023-05-14T11:01:02.179Z,14.42
2023-05-14T11:04:04.384Z,14.40
2023-05-14T11:07:06.549Z,14.37
2023-05-14T11:10:10.151Z,14.41
2023-05-14T11:13:12.388Z,14.31
2023-05-14T11:16:23.391Z,14.40
2023-05-14T11:19:26.151Z,14.42
2023-05-14T11:22:28.558Z,14.48
2023-05-14T11:25:31.076Z,14.50
2023-05-14T11:28:33.336Z,14.46
2023-05-14T11:31:36.044Z,14.49
2023-05-14T11:34:38.386Z,14.42
2023-05-14T11:37:40.824Z,14.41
2023-05-14T11:40:48.000Z,14.42
2023-05-14T11:43:50.455Z,14.43
2023-05-14T11:46:56.693Z,14.40
2023-05-14T11:49:59.508Z,14.41
2023-05-14T11:53:01.829Z,14.39
2023-05-14T11:56:04.294Z,14.39
2023-05-14T11:59:06.602Z,14.41
2023-05-14T12:02:12.039Z,14.41
2023-05-14T12:05:14.417Z,14.38
2023-05-14T12:08:23.245Z,14.39
2023-05-14T12:11:25.425Z,14.39
2023-05-14T12:14:27.675Z,14.35
2023-05-14T12:17:29.937Z,14.35
2023-05-14T12:20:32.560Z,14.32
2023-05-14T12:23:34.843Z,14.33
2023-05-14T12:26:38.792Z,14.37
2023-05-14T12:29:41.081Z,14.29
2023-05-14T12:32:43.336Z,14.25
2023-05-14T12:35:46.988Z,14.18
2023-05-14T12:38:59.858Z,14.14
2023-05-14T12:42:02.360Z,14.11
2023-05-14T12:45:08.098Z,14.08
2023-05-14T12:48:26.672Z,14.10
2023-05-14T12:51:29.070Z,14.08
2023-05-14T12:54:31.832Z,14.05
2023-05-14T12:57:35.490Z,14.04
2023-05-14T13:00:38.154Z,13.98
2023-05-14T13:03:40.436Z,13.94
2023-05-14T13:06:42.629Z,13.96
2023-05-14T13:09:44.849Z,13.92
2023-05-14T13:12:47.132Z,13.91
2023-05-14T13:15:49.473Z,13.90
2023-05-14T13:18:51.804Z,13.94
2023-05-14T13:21:54.005Z,13.94
2023-05-14T13:24:56.261Z,13.86
2023-05-14T13:27:58.500Z,13.84
2023-05-14T13:31:08.623Z,13.85
2023-05-14T13:34:10.864Z,13.88
2023-05-14T13:37:13.259Z,13.89
2023-05-14T13:40:15.963Z,13.93
2023-05-14T13:43:18.186Z,13.90
2023-05-14T13:46:20.567Z,13.91
2023-05-14T13:49:22.897Z,13.91
2023-05-14T13:52:25.381Z,13.88
2023-05-14T13:55:27.711Z,13.87
2023-05-14T13:58:30.396Z,13.87
2023-05-14T14:01:32.871Z,13.86
2023-05-14T14:04:35.156Z,13.89
2023-05-14T14:07:37.444Z,13.88
2023-05-14T14:10:41.258Z,13.86
2023-05-14T14:13:45.167Z,13.88
2023-05-14T14:16:48.681Z,13.86
2023-05-14T14:19:50.896Z,13.85
2023-05-14T14:22:54.703Z,13.78
2023-05-14T14:25:57.777Z,13.70
2023-05-14T14:28:59.969Z,13.77
2023-05-14T14:32:02.797Z,13.79
2023-05-14T14:35:05.468Z,13.83
2023-05-14T14:38:07.696Z,13.76
2023-05-14T14:41:10.413Z,13.86
2023-05-14T14:44:12.652Z,13.83
2023-05-14T14:47:14.937Z,13.65
2023-05-14T14:50:17.136Z,13.58
2023-05-14T14:53:20.222Z,13.68
2023-05-14T14:56:22.526Z,13.72
2023-05-14T14:59:24.871Z,13.68
2023-05-14T15:02:27.179Z,13.66
2023-05-14T15:05:29.581Z,13.52
2023-05-14T15:08:31.802Z,13.57
2023-05-14T15:11:36.008Z,13.44
2023-05-14T15:14:39.583Z,13.42
2023-05-14T15:17:41.969Z,13.44
2023-05-14T15:20:44.572Z,13.40
2023-05-14T15:23:46.955Z,13.36
2023-05-14T15:26:49.843Z,13.28
2023-05-14T15:29:52.883Z,13.31
2023-05-14T15:32:55.739Z,13.32
2023-05-14T15:35:58.048Z,13.31
2023-05-14T15:39:00.436Z,13.33
2023-05-14T15:42:02.711Z,13.36
2023-05-14T15:45:05.488Z,13.37
2023-05-14T15:48:07.852Z,13.31
2023-05-14T15:51:10.210Z,13.32
2023-05-14T15:54:12.508Z,13.33
2023-05-14T15:57:15.429Z,13.29
2023-05-14T16:00:19.628Z,13.29
2023-05-14T16:03:21.961Z,13.25
2023-05-14T16:06:24.610Z,13.23
2023-05-14T16:09:27.090Z,13.23
2023-05-14T16:12:29.307Z,13.22
2023-05-14T16:15:31.534Z,13.18
2023-05-14T16:18:34.072Z,13.18
2023-05-14T16:21:36.323Z,13.19
2023-05-14T16:24:38.630Z,13.22
2023-05-14T16:27:40.832Z,13.21
2023-05-14T16:30:43.095Z,13.23
2023-05-14T16:33:45.457Z,13.19
2023-05-14T16:36:47.671Z,13.26
2023-05-14T16:39:50.017Z,13.29
2023-05-14T16:42:52.294Z,13.26
2023-05-14T16:45:54.486Z,13.28
2023-05-14T16:48:56.819Z,13.32
2023-05-14T16:51:59.025Z,13.34
2023-05-14T16:55:04.179Z,13.40
2023-05-14T16:58:06.541Z,13.36
2023-05-14T17:01:09.902Z,13.38
2023-05-14T17:04:12.579Z,13.40
2023-05-14T17:07:14.887Z,13.42
2023-05-14T17:10:17.322Z,13.45
2023-05-14T17:13:20.430Z,13.46
2023-05-14T17:16:22.815Z,13.48
2023-05-14T17:19:25.266Z,13.52
2023-05-14T17:22:27.654Z,13.51
2023-05-14T17:25:29.902Z,13.48
2023-05-14T17:28:32.384Z,13.48
2023-05-14T17:31:34.616Z,13.48
2023-05-14T17:34:36.836Z,13.46
2023-05-14T17:37:39.100Z,13.45
2023-05-14T17:40:41.433Z,13.44
2023-05-14T17:43:43.647Z,13.29
2023-05-14T17:46:46.063Z,13.35
2023-05-14T17:49:48.778Z,13.37
2023-05-14T17:52:51.161Z,13.34
2023-05-14T17:55:53.504Z,13.31
2023-05-14T17:58:55.745Z,13.33
2023-05-14T18:01:57.979Z,13.31
2023-05-14T18:05:00.438Z,13.35
2023-05-14T18:08:02.770Z,13.38
2023-05-14T18:11:04.991Z,13.40
2023-05-14T18:14:07.274Z,13.43
2023-05-14T18:17:09.609Z,13.45
2023-05-14T18:20:12.078Z,13.45
2023-05-14T18:23:14.281Z,13.48
2023-05-14T18:26:16.799Z,13.49
2023-05-14T18:29:19.037Z,13.53
2023-05-14T18:32:21.646Z,13.51
2023-05-14T18:35:24.143Z,13.52
2023-05-14T18:38:26.453Z,13.52
2023-05-14T18:41:28.628Z,13.57
2023-05-14T18:44:31.063Z,13.57
2023-05-14T18:47:33.679Z,13.55
2023-05-14T18:50:37.438Z,13.56
2023-05-14T18:53:40.990Z,13.53
2023-05-14T18:56:46.751Z,13.52
2023-05-14T18:59:49.659Z,13.50
2023-05-14T19:02:51.929Z,13.52
2023-05-14T19:05:54.272Z,13.54
2023-05-14T19:08:56.685Z,13.51
2023-05-14T19:11:58.914Z,13.48
2023-05-14T19:15:01.109Z,13.51
2023-05-14T19:18:03.432Z,13.58
2023-05-14T19:21:05.724Z,13.59
2023-05-14T19:24:08.108Z,13.56
2023-05-14T19:27:10.511Z,13.57
2023-05-14T19:30:13.490Z,13.58
2023-05-14T19:33:15.748Z,13.58
2023-05-14T19:36:17.955Z,13.60
2023-05-14T19:39:20.281Z,13.61
2023-05-14T19:42:22.467Z,13.65
2023-05-14T19:45:25.008Z,13.68
2023-05-14T19:48:27.410Z,13.67
2023-05-14T19:51:29.726Z,13.67
2023-05-14T19:54:32.029Z,13.68
2023-05-14T19:57:34.255Z,13.68
2023-05-14T20:00:37.056Z,13.68
2023-05-14T20:03:39.491Z,13.71
2023-05-14T20:06:45.326Z,13.71
2023-05-14T20:09:47.606Z,13.69
2023-05-14T20:12:49.819Z,13.70
2023-05-14T20:15:52.241Z,13.70
2023-05-14T20:18:54.643Z,13.68
2023-05-14T20:21:56.939Z,13.50
2023-05-14T20:24:59.207Z,13.58
2023-05-14T20:28:01.609Z,13.62
2023-05-14T20:31:04.152Z,13.64
2023-05-14T20:34:06.540Z,13.67
2023-05-14T20:37:09.430Z,13.69
2023-05-14T20:40:15.022Z,13.70
2023-05-14T20:43:17.399Z,13.70
2023-05-14T20:46:19.753Z,13.69
2023-05-14T20:49:21.985Z,13.70
2023-05-14T20:52:24.260Z,13.69
2023-05-14T20:55:26.671Z,13.71
2023-05-14T20:58:30.311Z,13.71
2023-05-14T21:01:32.590Z,13.71
2023-05-14T21:04:35.056Z,13.73
2023-05-14T21:07:37.506Z,13.72
2023-05-14T21:10:39.792Z,13.72
2023-05-14T21:13:43.810Z,13.71
2023-05-14T21:16:46.180Z,13.71
2023-05-14T21:19:48.412Z,13.72
2023-05-14T21:22:50.656Z,13.72
2023-05-14T21:25:54.748Z,13.74
2023-05-14T21:28:56.929Z,13.77
2023-05-14T21:31:59.266Z,13.79
2023-05-14T21:35:01.592Z,13.78
2023-05-14T21:38:04.153Z,13.81
2023-05-14T21:41:06.423Z,13.84
2023-05-14T21:44:08.632Z,13.81
2023-05-14T21:47:11.490Z,13.77
2023-05-14T21:50:13.871Z,13.74
2023-05-14T21:53:16.230Z,13.74
2023-05-14T21:56:18.524Z,13.70
2023-05-14T21:59:20.822Z,13.68
2023-05-14T22:02:23.311Z,13.70
2023-05-14T22:05:26.104Z,13.70
2023-05-14T22:08:29.685Z,13.70
2023-05-14T22:11:31.810Z,13.71
2023-05-14T22:14:34.153Z,13.72
2023-05-14T22:17:36.587Z,13.74
2023-05-14T22:20:39.230Z,13.76
2023-05-14T22:23:41.492Z,13.77
2023-05-14T22:26:43.977Z,13.79
2023-05-14T22:29:46.197Z,13.78
2023-05-14T22:32:48.497Z,13.81
2023-05-14T22:35:50.704Z,13.79
2023-05-14T22:38:52.937Z,13.81
2023-05-14T22:41:55.630Z,13.82
2023-05-14T22:44:57.893Z,13.82
2023-05-14T22:48:00.239Z,13.83
2023-05-14T22:51:02.494Z,13.85
2023-05-14T22:54:04.809Z,13.86
2023-05-14T22:57:07.102Z,13.84
2023-05-14T23:00:09.949Z,13.83
2023-05-14T23:03:12.424Z,13.82
2023-05-14T23:06:14.803Z,13.83
2023-05-14T23:09:17.030Z,13.85
2023-05-14T23:12:19.282Z,13.86
2023-05-14T23:15:21.554Z,13.87
2023-05-14T23:18:24.122Z,13.86
2023-05-14T23:21:26.452Z,13.86
2023-05-14T23:24:28.730Z,13.87
2023-05-14T23:27:30.974Z,13.88
2023-05-14T23:30:33.285Z,13.87
2023-05-14T23:33:35.954Z,13.85
2023-05-14T23:36:39.722Z,13.84
2023-05-14T23:39:41.957Z,13.85
2023-05-14T23:42:44.813Z,13.83
2023-05-14T23:45:47.124Z,13.84
2023-05-14T23:48:51.160Z,13.83
2023-05-14T23:51:53.479Z,13.82
2023-05-14T23:54:55.686Z,13.82
2023-05-14T23:57:57.931Z,13.83
